sensor_id;sensor_type;location;lat;lon;timestamp;temperature;humidity
33095;DHT22;19459;53.044;8.910;2022-12-07T00:01:31;4.40;99.90
33095;DHT22;19459;53.044;8.910;2022-12-07T00:04:00;4.40;99.90
33095;DHT22;19459;53.044;8.910;2022-12-07T00:06:43;4.30;99.90
33095;DHT22;19459;53.044;8.910;2022-12-07T00:09:13;4.30;99.90
33095;DHT22;19459;53.044;8.910;2022-12-07T00:11:40;4.30;99.90
33095;DHT22;19459;53.044;8.910;2022-12-07T00:14:09;4.20;99.90
33095;DHT22;19459;53.044;8.910;2022-12-07T00:16:40;4.20;99.90
33095;DHT22;19459;53.044;8.910;2022-12-07T00:19:06;4.10;99.90
33095;DHT22;19459;53.044;8.910;2022-12-07T00:21:34;4.10;99.90
33095;DHT22;19459;53.044;8.910;2022-12-07T00:24:01;4.00;99.90
33095;DHT22;19459;53.044;8.910;2022-12-07T00:26:30;4.00;99.90
33095;DHT22;19459;53.044;8.910;2022-12-07T00:29:00;4.00;99.90
33095;DHT22;19459;53.044;8.910;2022-12-07T00:31:29;4.00;99.90
33095;DHT22;19459;53.044;8.910;2022-12-07T00:33:58;4.00;99.90
33095;DHT22;19459;53.044;8.910;2022-12-07T00:36:25;3.90;99.90
33095;DHT22;19459;53.044;8.910;2022-12-07T00:38:51;3.90;99.90
33095;DHT22;19459;53.044;8.910;2022-12-07T00:41:19;4.00;99.90
33095;DHT22;19459;53.044;8.910;2022-12-07T00:43:48;3.90;99.90
33095;DHT22;19459;53.044;8.910;2022-12-07T00:46:15;3.90;99.90
33095;DHT22;19459;53.044;8.910;2022-12-07T00:48:42;3.90;99.90
33095;DHT22;19459;53.044;8.910;2022-12-07T00:51:09;3.90;99.90
33095;DHT22;19459;53.044;8.910;2022-12-07T00:53:36;4.00;99.90
33095;DHT22;19459;53.044;8.910;2022-12-07T00:56:22;3.90;99.90
33095;DHT22;19459;53.044;8.910;2022-12-07T00:59:10;3.90;99.90
33095;DHT22;19459;53.044;8.910;2022-12-07T01:01:38;3.90;99.90
33095;DHT22;19459;53.044;8.910;2022-12-07T01:04:04;3.90;99.90
33095;DHT22;19459;53.044;8.910;2022-12-07T01:06:30;3.90;99.90
33095;DHT22;19459;53.044;8.910;2022-12-07T01:08:57;3.90;99.90
33095;DHT22;19459;53.044;8.910;2022-12-07T01:11:25;3.90;99.90
33095;DHT22;19459;53.044;8.910;2022-12-07T01:13:56;3.80;99.90
33095;DHT22;19459;53.044;8.910;2022-12-07T01:16:24;3.80;99.90
33095;DHT22;19459;53.044;8.910;2022-12-07T01:18:52;3.80;99.90
33095;DHT22;19459;53.044;8.910;2022-12-07T01:21:28;3.80;99.90
33095;DHT22;19459;53.044;8.910;2022-12-07T01:23:57;3.80;99.90
33095;DHT22;19459;53.044;8.910;2022-12-07T01:26:24;3.80;99.90
33095;DHT22;19459;53.044;8.910;2022-12-07T01:28:51;3.70;99.90
33095;DHT22;19459;53.044;8.910;2022-12-07T01:31:19;3.70;99.90
33095;DHT22;19459;53.044;8.910;2022-12-07T01:33:48;3.70;99.90
33095;DHT22;19459;53.044;8.910;2022-12-07T01:36:19;3.70;99.90
33095;DHT22;19459;53.044;8.910;2022-12-07T01:38:49;3.70;99.90
33095;DHT22;19459;53.044;8.910;2022-12-07T01:41:20;3.70;99.90
33095;DHT22;19459;53.044;8.910;2022-12-07T01:46:40;3.70;99.90
33095;DHT22;19459;53.044;8.910;2022-12-07T01:49:09;3.60;99.90
33095;DHT22;19459;53.044;8.910;2022-12-07T01:51:38;3.70;99.90
33095;DHT22;19459;53.044;8.910;2022-12-07T01:54:06;3.70;99.90
33095;DHT22;19459;53.044;8.910;2022-12-07T01:56:33;3.60;99.90
33095;DHT22;19459;53.044;8.910;2022-12-07T01:59:00;3.60;99.90
33095;DHT22;19459;53.044;8.910;2022-12-07T02:01:26;3.60;99.90
33095;DHT22;19459;53.044;8.910;2022-12-07T02:03:52;3.60;99.90
33095;DHT22;19459;53.044;8.910;2022-12-07T02:06:21;3.60;99.90
33095;DHT22;19459;53.044;8.910;2022-12-07T02:08:49;3.60;99.90
33095;DHT22;19459;53.044;8.910;2022-12-07T02:11:15;3.60;99.90
33095;DHT22;19459;53.044;8.910;2022-12-07T02:13:42;3.60;99.90
33095;DHT22;19459;53.044;8.910;2022-12-07T02:19:26;3.60;99.90
33095;DHT22;19459;53.044;8.910;2022-12-07T02:28:07;3.50;99.90
33095;DHT22;19459;53.044;8.910;2022-12-07T02:30:44;3.40;99.90
33095;DHT22;19459;53.044;8.910;2022-12-07T02:33:35;3.40;99.90
33095;DHT22;19459;53.044;8.910;2022-12-07T02:36:20;3.40;99.90
33095;DHT22;19459;53.044;8.910;2022-12-07T02:39:17;3.40;99.90
33095;DHT22;19459;53.044;8.910;2022-12-07T02:41:54;3.40;99.90
33095;DHT22;19459;53.044;8.910;2022-12-07T02:44:24;3.40;99.90
33095;DHT22;19459;53.044;8.910;2022-12-07T02:46:58;3.40;99.90
33095;DHT22;19459;53.044;8.910;2022-12-07T02:49:28;3.40;99.90
33095;DHT22;19459;53.044;8.910;2022-12-07T02:51:54;3.40;99.90
33095;DHT22;19459;53.044;8.910;2022-12-07T02:54:20;3.40;99.90
33095;DHT22;19459;53.044;8.910;2022-12-07T03:00:00;3.40;99.90
33095;DHT22;19459;53.044;8.910;2022-12-07T03:08:23;3.50;99.90
33095;DHT22;19459;53.044;8.910;2022-12-07T03:11:04;3.50;99.90
33095;DHT22;19459;53.044;8.910;2022-12-07T03:16:46;3.40;99.90
33095;DHT22;19459;53.044;8.910;2022-12-07T03:19:18;3.50;99.90
33095;DHT22;19459;53.044;8.910;2022-12-07T03:22:02;3.50;99.90
33095;DHT22;19459;53.044;8.910;2022-12-07T03:24:41;3.50;99.90
33095;DHT22;19459;53.044;8.910;2022-12-07T03:27:16;3.50;99.90
33095;DHT22;19459;53.044;8.910;2022-12-07T03:30:29;3.50;99.90
33095;DHT22;19459;53.044;8.910;2022-12-07T03:33:08;3.60;99.90
33095;DHT22;19459;53.044;8.910;2022-12-07T03:35:53;3.60;99.90
33095;DHT22;19459;53.044;8.910;2022-12-07T03:38:30;3.60;99.90
33095;DHT22;19459;53.044;8.910;2022-12-07T03:41:08;3.60;99.90
33095;DHT22;19459;53.044;8.910;2022-12-07T03:43:37;3.70;99.90
33095;DHT22;19459;53.044;8.910;2022-12-07T03:46:28;3.70;99.90
33095;DHT22;19459;53.044;8.910;2022-12-07T03:49:08;3.70;99.90
33095;DHT22;19459;53.044;8.910;2022-12-07T03:56:57;3.80;99.90
33095;DHT22;19459;53.044;8.910;2022-12-07T03:59:24;3.80;99.90
33095;DHT22;19459;53.044;8.910;2022-12-07T04:01:56;3.80;99.90
33095;DHT22;19459;53.044;8.910;2022-12-07T04:04:24;3.90;99.90
33095;DHT22;19459;53.044;8.910;2022-12-07T04:06:50;3.90;99.90
33095;DHT22;19459;53.044;8.910;2022-12-07T04:09:16;3.90;99.90
33095;DHT22;19459;53.044;8.910;2022-12-07T04:11:43;3.90;99.90
33095;DHT22;19459;53.044;8.910;2022-12-07T04:14:08;3.90;99.90
33095;DHT22;19459;53.044;8.910;2022-12-07T04:16:54;3.90;99.90
33095;DHT22;19459;53.044;8.910;2022-12-07T04:19:32;3.90;99.90
33095;DHT22;19459;53.044;8.910;2022-12-07T04:22:02;3.90;99.90
33095;DHT22;19459;53.044;8.910;2022-12-07T04:24:29;3.80;99.90
33095;DHT22;19459;53.044;8.910;2022-12-07T04:26:55;3.80;99.90
33095;DHT22;19459;53.044;8.910;2022-12-07T04:29:21;3.80;99.90
33095;DHT22;19459;53.044;8.910;2022-12-07T04:31:48;3.70;99.90
33095;DHT22;19459;53.044;8.910;2022-12-07T04:34:15;3.70;99.90
33095;DHT22;19459;53.044;8.910;2022-12-07T04:36:41;3.70;99.90
33095;DHT22;19459;53.044;8.910;2022-12-07T04:39:12;3.70;99.90
33095;DHT22;19459;53.044;8.910;2022-12-07T04:41:43;3.70;99.90
33095;DHT22;19459;53.044;8.910;2022-12-07T04:44:09;3.60;99.90
33095;DHT22;19459;53.044;8.910;2022-12-07T04:46:36;3.60;99.90
33095;DHT22;19459;53.044;8.910;2022-12-07T04:49:02;3.70;99.90
33095;DHT22;19459;53.044;8.910;2022-12-07T04:51:28;3.70;99.90
33095;DHT22;19459;53.044;8.910;2022-12-07T04:53:55;3.70;99.90
33095;DHT22;19459;53.044;8.910;2022-12-07T04:56:22;3.70;99.90
33095;DHT22;19459;53.044;8.910;2022-12-07T04:58:48;3.70;99.90
33095;DHT22;19459;53.044;8.910;2022-12-07T05:01:16;3.70;99.90
33095;DHT22;19459;53.044;8.910;2022-12-07T05:03:42;3.60;99.90
33095;DHT22;19459;53.044;8.910;2022-12-07T05:06:09;3.60;99.90
33095;DHT22;19459;53.044;8.910;2022-12-07T05:08:36;3.60;99.90
33095;DHT22;19459;53.044;8.910;2022-12-07T05:11:03;3.70;99.90
33095;DHT22;19459;53.044;8.910;2022-12-07T05:13:29;3.70;99.90
33095;DHT22;19459;53.044;8.910;2022-12-07T05:15:56;3.70;99.90
33095;DHT22;19459;53.044;8.910;2022-12-07T05:18:22;3.60;99.90
33095;DHT22;19459;53.044;8.910;2022-12-07T05:20:49;3.60;99.90
33095;DHT22;19459;53.044;8.910;2022-12-07T05:23:16;3.60;99.90
33095;DHT22;19459;53.044;8.910;2022-12-07T05:25:42;3.60;99.90
33095;DHT22;19459;53.044;8.910;2022-12-07T05:28:08;3.50;99.90
33095;DHT22;19459;53.044;8.910;2022-12-07T05:30:34;3.50;99.90
33095;DHT22;19459;53.044;8.910;2022-12-07T05:33:00;3.50;99.90
33095;DHT22;19459;53.044;8.910;2022-12-07T05:35:26;3.50;99.90
33095;DHT22;19459;53.044;8.910;2022-12-07T05:37:52;3.40;99.90
33095;DHT22;19459;53.044;8.910;2022-12-07T05:40:17;3.40;99.90
33095;DHT22;19459;53.044;8.910;2022-12-07T05:42:44;3.40;99.90
33095;DHT22;19459;53.044;8.910;2022-12-07T05:45:11;3.30;99.90
33095;DHT22;19459;53.044;8.910;2022-12-07T05:47:37;3.30;99.90
33095;DHT22;19459;53.044;8.910;2022-12-07T05:50:05;3.30;99.90
33095;DHT22;19459;53.044;8.910;2022-12-07T05:52:32;3.30;99.90
33095;DHT22;19459;53.044;8.910;2022-12-07T05:54:58;3.30;99.90
33095;DHT22;19459;53.044;8.910;2022-12-07T05:57:23;3.30;99.90
33095;DHT22;19459;53.044;8.910;2022-12-07T05:59:49;3.30;99.90
33095;DHT22;19459;53.044;8.910;2022-12-07T06:02:16;3.30;99.90
33095;DHT22;19459;53.044;8.910;2022-12-07T06:04:45;3.30;99.90
33095;DHT22;19459;53.044;8.910;2022-12-07T06:07:13;3.20;99.90
33095;DHT22;19459;53.044;8.910;2022-12-07T06:09:40;3.20;99.90
33095;DHT22;19459;53.044;8.910;2022-12-07T06:12:06;3.20;99.90
33095;DHT22;19459;53.044;8.910;2022-12-07T06:14:55;3.20;99.90
33095;DHT22;19459;53.044;8.910;2022-12-07T06:17:21;3.20;99.90
33095;DHT22;19459;53.044;8.910;2022-12-07T06:19:47;3.20;99.90
33095;DHT22;19459;53.044;8.910;2022-12-07T06:22:13;3.20;99.90
33095;DHT22;19459;53.044;8.910;2022-12-07T06:24:39;3.20;99.90
33095;DHT22;19459;53.044;8.910;2022-12-07T06:27:06;3.20;99.90
33095;DHT22;19459;53.044;8.910;2022-12-07T06:29:32;3.20;99.90
33095;DHT22;19459;53.044;8.910;2022-12-07T06:31:58;3.20;99.90
33095;DHT22;19459;53.044;8.910;2022-12-07T06:34:24;3.30;99.90
33095;DHT22;19459;53.044;8.910;2022-12-07T06:36:51;3.30;99.90
33095;DHT22;19459;53.044;8.910;2022-12-07T06:39:20;3.40;99.90
33095;DHT22;19459;53.044;8.910;2022-12-07T06:41:47;3.40;99.90
33095;DHT22;19459;53.044;8.910;2022-12-07T06:44:12;3.50;99.90
33095;DHT22;19459;53.044;8.910;2022-12-07T06:46:38;3.40;99.90
33095;DHT22;19459;53.044;8.910;2022-12-07T06:49:05;3.40;99.90
33095;DHT22;19459;53.044;8.910;2022-12-07T06:51:32;3.40;99.90
33095;DHT22;19459;53.044;8.910;2022-12-07T06:54:00;3.40;99.90
33095;DHT22;19459;53.044;8.910;2022-12-07T06:56:26;3.40;99.90
33095;DHT22;19459;53.044;8.910;2022-12-07T06:58:52;3.40;99.90
33095;DHT22;19459;53.044;8.910;2022-12-07T07:01:18;3.40;99.90
33095;DHT22;19459;53.044;8.910;2022-12-07T07:03:45;3.40;99.90
33095;DHT22;19459;53.044;8.910;2022-12-07T07:06:12;3.40;99.90
33095;DHT22;19459;53.044;8.910;2022-12-07T07:08:39;3.40;99.90
33095;DHT22;19459;53.044;8.910;2022-12-07T07:11:06;3.40;99.90
33095;DHT22;19459;53.044;8.910;2022-12-07T07:13:32;3.40;99.90
33095;DHT22;19459;53.044;8.910;2022-12-07T07:15:58;3.30;99.90
33095;DHT22;19459;53.044;8.910;2022-12-07T07:18:24;3.40;99.90
33095;DHT22;19459;53.044;8.910;2022-12-07T07:20:52;3.40;99.90
33095;DHT22;19459;53.044;8.910;2022-12-07T07:23:19;3.40;99.90
33095;DHT22;19459;53.044;8.910;2022-12-07T07:25:45;3.40;99.90
33095;DHT22;19459;53.044;8.910;2022-12-07T07:28:11;3.40;99.90
33095;DHT22;19459;53.044;8.910;2022-12-07T07:30:37;3.40;99.90
33095;DHT22;19459;53.044;8.910;2022-12-07T07:33:04;3.40;99.90
33095;DHT22;19459;53.044;8.910;2022-12-07T07:35:32;3.40;99.90
33095;DHT22;19459;53.044;8.910;2022-12-07T07:37:59;3.40;99.90
33095;DHT22;19459;53.044;8.910;2022-12-07T07:40:26;3.40;99.90
33095;DHT22;19459;53.044;8.910;2022-12-07T07:42:54;3.40;99.90
33095;DHT22;19459;53.044;8.910;2022-12-07T07:45:22;3.40;99.90
33095;DHT22;19459;53.044;8.910;2022-12-07T07:47:49;3.40;99.90
33095;DHT22;19459;53.044;8.910;2022-12-07T07:50:16;3.30;99.90
33095;DHT22;19459;53.044;8.910;2022-12-07T07:52:42;3.30;99.90
33095;DHT22;19459;53.044;8.910;2022-12-07T07:55:09;3.30;99.90
33095;DHT22;19459;53.044;8.910;2022-12-07T07:57:36;3.30;99.90
33095;DHT22;19459;53.044;8.910;2022-12-07T08:00:12;3.30;99.90
33095;DHT22;19459;53.044;8.910;2022-12-07T08:02:40;3.30;99.90
33095;DHT22;19459;53.044;8.910;2022-12-07T08:05:08;3.30;99.90
33095;DHT22;19459;53.044;8.910;2022-12-07T08:07:34;3.30;99.90
33095;DHT22;19459;53.044;8.910;2022-12-07T08:10:00;3.30;99.90
33095;DHT22;19459;53.044;8.910;2022-12-07T08:12:26;3.40;99.90
33095;DHT22;19459;53.044;8.910;2022-12-07T08:14:52;3.40;99.90
33095;DHT22;19459;53.044;8.910;2022-12-07T08:17:18;3.40;99.90
33095;DHT22;19459;53.044;8.910;2022-12-07T08:19:44;3.40;99.90
33095;DHT22;19459;53.044;8.910;2022-12-07T08:22:09;3.40;99.90
33095;DHT22;19459;53.044;8.910;2022-12-07T08:24:35;3.40;99.90
33095;DHT22;19459;53.044;8.910;2022-12-07T08:27:02;3.40;99.90
33095;DHT22;19459;53.044;8.910;2022-12-07T08:29:29;3.40;99.90
33095;DHT22;19459;53.044;8.910;2022-12-07T08:31:55;3.40;99.90
33095;DHT22;19459;53.044;8.910;2022-12-07T08:34:20;3.50;99.90
33095;DHT22;19459;53.044;8.910;2022-12-07T08:36:46;3.50;99.90
33095;DHT22;19459;53.044;8.910;2022-12-07T08:39:12;3.50;99.90
33095;DHT22;19459;53.044;8.910;2022-12-07T08:41:38;3.50;99.90
33095;DHT22;19459;53.044;8.910;2022-12-07T08:44:04;3.60;99.90
33095;DHT22;19459;53.044;8.910;2022-12-07T08:46:39;3.60;99.90
33095;DHT22;19459;53.044;8.910;2022-12-07T08:49:16;3.60;99.90
33095;DHT22;19459;53.044;8.910;2022-12-07T08:51:45;3.60;99.90
33095;DHT22;19459;53.044;8.910;2022-12-07T08:54:14;3.60;99.90
33095;DHT22;19459;53.044;8.910;2022-12-07T08:56:43;3.60;99.90
33095;DHT22;19459;53.044;8.910;2022-12-07T08:59:12;3.70;99.90
33095;DHT22;19459;53.044;8.910;2022-12-07T09:01:39;3.70;99.90
33095;DHT22;19459;53.044;8.910;2022-12-07T09:04:04;3.80;99.90
33095;DHT22;19459;53.044;8.910;2022-12-07T09:06:30;3.80;99.90
33095;DHT22;19459;53.044;8.910;2022-12-07T09:08:58;3.90;99.90
33095;DHT22;19459;53.044;8.910;2022-12-07T09:11:24;3.90;99.90
33095;DHT22;19459;53.044;8.910;2022-12-07T09:13:50;4.00;99.90
33095;DHT22;19459;53.044;8.910;2022-12-07T09:16:15;4.00;99.90
33095;DHT22;19459;53.044;8.910;2022-12-07T09:18:41;4.00;99.90
33095;DHT22;19459;53.044;8.910;2022-12-07T09:21:07;4.00;99.90
33095;DHT22;19459;53.044;8.910;2022-12-07T09:23:34;4.00;99.90
33095;DHT22;19459;53.044;8.910;2022-12-07T09:26:01;4.00;99.90
33095;DHT22;19459;53.044;8.910;2022-12-07T09:28:28;4.00;99.90
33095;DHT22;19459;53.044;8.910;2022-12-07T09:30:53;4.00;99.90
33095;DHT22;19459;53.044;8.910;2022-12-07T09:33:19;4.00;99.90
33095;DHT22;19459;53.044;8.910;2022-12-07T09:35:49;4.10;99.90
33095;DHT22;19459;53.044;8.910;2022-12-07T09:38:16;4.10;99.90
33095;DHT22;19459;53.044;8.910;2022-12-07T09:40:43;4.10;99.90
33095;DHT22;19459;53.044;8.910;2022-12-07T09:43:27;4.20;99.90
33095;DHT22;19459;53.044;8.910;2022-12-07T09:45:54;4.20;99.90
33095;DHT22;19459;53.044;8.910;2022-12-07T09:48:28;4.30;99.90
33095;DHT22;19459;53.044;8.910;2022-12-07T09:50:59;4.50;99.90
33095;DHT22;19459;53.044;8.910;2022-12-07T09:53:30;4.80;99.90
33095;DHT22;19459;53.044;8.910;2022-12-07T09:55:59;5.10;99.90
33095;DHT22;19459;53.044;8.910;2022-12-07T09:58:27;5.40;99.90
33095;DHT22;19459;53.044;8.910;2022-12-07T10:03:35;5.00;99.90
33095;DHT22;19459;53.044;8.910;2022-12-07T10:06:01;4.90;99.90
33095;DHT22;19459;53.044;8.910;2022-12-07T10:08:28;4.70;99.90
33095;DHT22;19459;53.044;8.910;2022-12-07T10:10:57;4.60;99.90
33095;DHT22;19459;53.044;8.910;2022-12-07T10:13:38;4.70;99.90
33095;DHT22;19459;53.044;8.910;2022-12-07T10:18:50;5.20;99.90
33095;DHT22;19459;53.044;8.910;2022-12-07T10:21:17;5.30;99.90
33095;DHT22;19459;53.044;8.910;2022-12-07T10:26:50;5.60;99.90
33095;DHT22;19459;53.044;8.910;2022-12-07T10:29:24;5.90;99.90
33095;DHT22;19459;53.044;8.910;2022-12-07T10:34:27;5.80;99.90
33095;DHT22;19459;53.044;8.910;2022-12-07T10:39:54;5.20;99.90
33095;DHT22;19459;53.044;8.910;2022-12-07T10:48:19;5.20;99.90
33095;DHT22;19459;53.044;8.910;2022-12-07T11:02:23;5.50;99.90
33095;DHT22;19459;53.044;8.910;2022-12-07T11:05:25;5.50;99.90
33095;DHT22;19459;53.044;8.910;2022-12-07T11:11:33;5.60;99.90
33095;DHT22;19459;53.044;8.910;2022-12-07T11:26:14;5.70;99.90
33095;DHT22;19459;53.044;8.910;2022-12-07T11:35:36;5.30;99.90
33095;DHT22;19459;53.044;8.910;2022-12-07T11:38:43;5.20;99.90
33095;DHT22;19459;53.044;8.910;2022-12-07T11:41:26;5.10;99.90
33095;DHT22;19459;53.044;8.910;2022-12-07T11:49:37;5.20;99.90
33095;DHT22;19459;53.044;8.910;2022-12-07T11:52:18;5.30;99.90
33095;DHT22;19459;53.044;8.910;2022-12-07T12:06:42;5.70;99.90
33095;DHT22;19459;53.044;8.910;2022-12-07T12:09:19;5.90;99.90
33095;DHT22;19459;53.044;8.910;2022-12-07T12:19:02;6.20;99.90
33095;DHT22;19459;53.044;8.910;2022-12-07T12:21:35;6.20;99.90
33095;DHT22;19459;53.044;8.910;2022-12-07T12:24:09;6.30;99.90
33095;DHT22;19459;53.044;8.910;2022-12-07T12:26:59;6.30;99.90
33095;DHT22;19459;53.044;8.910;2022-12-07T12:29:36;6.30;99.90
33095;DHT22;19459;53.044;8.910;2022-12-07T12:32:31;6.20;99.90
33095;DHT22;19459;53.044;8.910;2022-12-07T12:37:53;6.10;99.90
33095;DHT22;19459;53.044;8.910;2022-12-07T12:42:57;6.10;99.90
33095;DHT22;19459;53.044;8.910;2022-12-07T12:45:29;6.10;99.90
33095;DHT22;19459;53.044;8.910;2022-12-07T12:47:59;6.10;99.90
33095;DHT22;19459;53.044;8.910;2022-12-07T12:50:37;6.00;99.90
33095;DHT22;19459;53.044;8.910;2022-12-07T12:58:33;5.90;99.90
33095;DHT22;19459;53.044;8.910;2022-12-07T13:03:57;5.80;99.90
33095;DHT22;19459;53.044;8.910;2022-12-07T13:08:55;4.80;99.90
33095;DHT22;19459;53.044;8.910;2022-12-07T13:11:32;4.50;99.90
33095;DHT22;19459;53.044;8.910;2022-12-07T13:17:07;4.30;99.90
33095;DHT22;19459;53.044;8.910;2022-12-07T13:20:03;4.40;99.90
33095;DHT22;19459;53.044;8.910;2022-12-07T13:25:18;4.50;99.90
33095;DHT22;19459;53.044;8.910;2022-12-07T13:27:57;4.50;99.90
33095;DHT22;19459;53.044;8.910;2022-12-07T13:30:27;4.50;99.90
33095;DHT22;19459;53.044;8.910;2022-12-07T13:32:57;4.60;99.90
33095;DHT22;19459;53.044;8.910;2022-12-07T13:35:32;4.60;99.90
33095;DHT22;19459;53.044;8.910;2022-12-07T13:41:26;4.60;99.90
33095;DHT22;19459;53.044;8.910;2022-12-07T13:44:02;4.50;99.90
33095;DHT22;19459;53.044;8.910;2022-12-07T13:49:38;4.50;99.90
33095;DHT22;19459;53.044;8.910;2022-12-07T13:54:54;4.50;99.90
33095;DHT22;19459;53.044;8.910;2022-12-07T13:57:21;4.50;99.90
33095;DHT22;19459;53.044;8.910;2022-12-07T13:59:48;4.50;99.90
33095;DHT22;19459;53.044;8.910;2022-12-07T14:02:29;4.50;99.90
33095;DHT22;19459;53.044;8.910;2022-12-07T14:05:15;4.50;99.90
33095;DHT22;19459;53.044;8.910;2022-12-07T14:07:57;4.50;99.90
33095;DHT22;19459;53.044;8.910;2022-12-07T14:10:35;4.60;99.90
33095;DHT22;19459;53.044;8.910;2022-12-07T14:13:27;4.60;99.90
33095;DHT22;19459;53.044;8.910;2022-12-07T14:15:57;4.60;99.90
33095;DHT22;19459;53.044;8.910;2022-12-07T14:18:37;4.70;99.90
33095;DHT22;19459;53.044;8.910;2022-12-07T14:21:14;4.60;99.90
33095;DHT22;19459;53.044;8.910;2022-12-07T14:23:43;4.60;99.90
33095;DHT22;19459;53.044;8.910;2022-12-07T14:26:14;4.60;99.90
33095;DHT22;19459;53.044;8.910;2022-12-07T14:28:43;4.60;99.90
33095;DHT22;19459;53.044;8.910;2022-12-07T14:31:14;4.60;99.90
33095;DHT22;19459;53.044;8.910;2022-12-07T14:33:45;4.50;99.90
33095;DHT22;19459;53.044;8.910;2022-12-07T14:36:12;4.50;99.90
33095;DHT22;19459;53.044;8.910;2022-12-07T14:38:39;4.40;99.90
33095;DHT22;19459;53.044;8.910;2022-12-07T14:41:14;4.40;99.90
33095;DHT22;19459;53.044;8.910;2022-12-07T14:44:00;4.40;99.90
33095;DHT22;19459;53.044;8.910;2022-12-07T14:46:26;4.40;99.90
33095;DHT22;19459;53.044;8.910;2022-12-07T14:48:51;4.40;99.90
33095;DHT22;19459;53.044;8.910;2022-12-07T14:51:17;4.40;99.90
33095;DHT22;19459;53.044;8.910;2022-12-07T14:53:47;4.30;99.90
33095;DHT22;19459;53.044;8.910;2022-12-07T14:56:14;4.20;99.90
33095;DHT22;19459;53.044;8.910;2022-12-07T14:58:40;4.10;99.90
33095;DHT22;19459;53.044;8.910;2022-12-07T15:01:06;4.10;99.90
33095;DHT22;19459;53.044;8.910;2022-12-07T15:03:32;4.10;99.90
33095;DHT22;19459;53.044;8.910;2022-12-07T15:06:00;4.00;99.90
33095;DHT22;19459;53.044;8.910;2022-12-07T15:08:26;4.00;99.90
33095;DHT22;19459;53.044;8.910;2022-12-07T15:10:52;4.00;99.90
33095;DHT22;19459;53.044;8.910;2022-12-07T15:13:18;4.00;99.90
33095;DHT22;19459;53.044;8.910;2022-12-07T15:16:02;4.00;99.90
33095;DHT22;19459;53.044;8.910;2022-12-07T15:18:28;4.00;99.90
33095;DHT22;19459;53.044;8.910;2022-12-07T15:20:54;4.00;99.90
33095;DHT22;19459;53.044;8.910;2022-12-07T15:23:20;3.90;99.90
33095;DHT22;19459;53.044;8.910;2022-12-07T15:25:48;3.90;99.90
33095;DHT22;19459;53.044;8.910;2022-12-07T15:28:14;3.90;99.90
33095;DHT22;19459;53.044;8.910;2022-12-07T15:30:42;3.90;99.90
33095;DHT22;19459;53.044;8.910;2022-12-07T15:33:09;3.80;99.90
33095;DHT22;19459;53.044;8.910;2022-12-07T15:35:44;3.80;99.90
33095;DHT22;19459;53.044;8.910;2022-12-07T15:38:11;3.80;99.90
33095;DHT22;19459;53.044;8.910;2022-12-07T15:40:37;3.80;99.90
33095;DHT22;19459;53.044;8.910;2022-12-07T15:43:03;3.80;99.90
33095;DHT22;19459;53.044;8.910;2022-12-07T15:45:29;3.70;99.90
33095;DHT22;19459;53.044;8.910;2022-12-07T15:47:55;3.70;99.90
33095;DHT22;19459;53.044;8.910;2022-12-07T15:50:21;3.60;99.90
33095;DHT22;19459;53.044;8.910;2022-12-07T15:52:48;3.60;99.90
33095;DHT22;19459;53.044;8.910;2022-12-07T15:55:14;3.60;99.90
33095;DHT22;19459;53.044;8.910;2022-12-07T15:57:40;3.60;99.90
33095;DHT22;19459;53.044;8.910;2022-12-07T16:00:07;3.50;99.90
33095;DHT22;19459;53.044;8.910;2022-12-07T16:02:36;3.40;99.90
33095;DHT22;19459;53.044;8.910;2022-12-07T16:05:02;3.40;99.90
33095;DHT22;19459;53.044;8.910;2022-12-07T16:07:28;3.40;99.90
33095;DHT22;19459;53.044;8.910;2022-12-07T16:09:54;3.30;99.90
33095;DHT22;19459;53.044;8.910;2022-12-07T16:12:20;3.30;99.90
33095;DHT22;19459;53.044;8.910;2022-12-07T16:14:46;3.20;99.90
33095;DHT22;19459;53.044;8.910;2022-12-07T16:17:12;3.20;99.90
33095;DHT22;19459;53.044;8.910;2022-12-07T16:19:38;3.20;99.90
33095;DHT22;19459;53.044;8.910;2022-12-07T16:22:04;3.10;99.90
33095;DHT22;19459;53.044;8.910;2022-12-07T16:24:30;3.10;99.90
33095;DHT22;19459;53.044;8.910;2022-12-07T16:26:56;3.10;99.90
33095;DHT22;19459;53.044;8.910;2022-12-07T16:29:23;3.10;99.90
33095;DHT22;19459;53.044;8.910;2022-12-07T16:31:49;3.10;99.90
33095;DHT22;19459;53.044;8.910;2022-12-07T16:34:16;3.10;99.90
33095;DHT22;19459;53.044;8.910;2022-12-07T16:36:42;3.20;99.90
33095;DHT22;19459;53.044;8.910;2022-12-07T16:39:08;3.10;99.90
33095;DHT22;19459;53.044;8.910;2022-12-07T16:41:34;3.10;99.90
33095;DHT22;19459;53.044;8.910;2022-12-07T16:44:07;3.10;99.90
33095;DHT22;19459;53.044;8.910;2022-12-07T16:46:35;3.10;99.90
33095;DHT22;19459;53.044;8.910;2022-12-07T16:49:02;3.10;99.90
33095;DHT22;19459;53.044;8.910;2022-12-07T16:51:28;3.10;99.90
33095;DHT22;19459;53.044;8.910;2022-12-07T16:53:54;3.10;99.90
33095;DHT22;19459;53.044;8.910;2022-12-07T16:56:20;3.10;99.90
33095;DHT22;19459;53.044;8.910;2022-12-07T16:58:46;3.10;99.90
33095;DHT22;19459;53.044;8.910;2022-12-07T17:01:20;3.10;99.90
33095;DHT22;19459;53.044;8.910;2022-12-07T17:03:48;3.20;99.90
33095;DHT22;19459;53.044;8.910;2022-12-07T17:06:21;3.20;99.90
33095;DHT22;19459;53.044;8.910;2022-12-07T17:08:48;3.20;99.90
33095;DHT22;19459;53.044;8.910;2022-12-07T17:11:20;3.10;99.90
33095;DHT22;19459;53.044;8.910;2022-12-07T17:13:47;3.10;99.90
33095;DHT22;19459;53.044;8.910;2022-12-07T17:16:32;3.10;99.90
33095;DHT22;19459;53.044;8.910;2022-12-07T17:18:58;3.00;99.90
33095;DHT22;19459;53.044;8.910;2022-12-07T17:21:24;3.00;99.90
33095;DHT22;19459;53.044;8.910;2022-12-07T17:23:50;3.00;99.90
33095;DHT22;19459;53.044;8.910;2022-12-07T17:26:20;3.00;99.90
33095;DHT22;19459;53.044;8.910;2022-12-07T17:28:47;3.00;99.90
33095;DHT22;19459;53.044;8.910;2022-12-07T17:31:14;2.90;99.90
33095;DHT22;19459;53.044;8.910;2022-12-07T17:33:45;2.90;99.90
33095;DHT22;19459;53.044;8.910;2022-12-07T17:36:20;2.90;99.90
33095;DHT22;19459;53.044;8.910;2022-12-07T17:38:47;2.80;99.90
33095;DHT22;19459;53.044;8.910;2022-12-07T17:41:16;2.80;99.90
33095;DHT22;19459;53.044;8.910;2022-12-07T17:44:13;2.90;99.90
33095;DHT22;19459;53.044;8.910;2022-12-07T17:46:40;2.80;99.90
33095;DHT22;19459;53.044;8.910;2022-12-07T17:49:06;2.80;99.90
33095;DHT22;19459;53.044;8.910;2022-12-07T17:51:32;2.80;99.90
33095;DHT22;19459;53.044;8.910;2022-12-07T17:54:17;2.90;99.90
33095;DHT22;19459;53.044;8.910;2022-12-07T17:56:44;2.90;99.90
33095;DHT22;19459;53.044;8.910;2022-12-07T17:59:10;2.90;99.90
33095;DHT22;19459;53.044;8.910;2022-12-07T18:01:37;2.90;99.90
33095;DHT22;19459;53.044;8.910;2022-12-07T18:04:03;2.90;99.90
33095;DHT22;19459;53.044;8.910;2022-12-07T18:06:30;2.90;99.90
33095;DHT22;19459;53.044;8.910;2022-12-07T18:08:56;2.90;99.90
33095;DHT22;19459;53.044;8.910;2022-12-07T18:11:22;2.90;99.90
33095;DHT22;19459;53.044;8.910;2022-12-07T18:13:48;2.80;99.90
33095;DHT22;19459;53.044;8.910;2022-12-07T18:16:17;2.90;99.90
33095;DHT22;19459;53.044;8.910;2022-12-07T18:18:46;2.90;99.90
33095;DHT22;19459;53.044;8.910;2022-12-07T18:21:15;2.90;99.90